createdAt,value
2017-08-07T00:00:45.859Z,70.00
2017-08-07T00:03:13.564Z,69.70
2017-08-07T00:05:41.216Z,69.70
2017-08-07T00:08:08.910Z,69.90
2017-08-07T00:10:37.330Z,70.10
2017-08-07T00:13:05.814Z,70.00
2017-08-07T00:15:33.462Z,70.10
2017-08-07T00:18:01.156Z,70.30
2017-08-07T00:20:28.805Z,70.40
2017-08-07T00:22:56.454Z,70.90
2017-08-07T00:25:24.145Z,70.80
2017-08-07T00:27:51.791Z,70.90
2017-08-07T00:30:19.502Z,70.90
2017-08-07T00:32:47.150Z,70.90
2017-08-07T00:35:15.616Z,70.90
2017-08-07T00:37:43.275Z,70.90
2017-08-07T00:40:10.973Z,71.50
2017-08-07T00:42:38.627Z,71.90
2017-08-07T00:45:06.323Z,71.90
2017-08-07T00:47:33.977Z,71.60
2017-08-07T00:50:01.670Z,71.50
2017-08-07T00:52:29.327Z,71.30
2017-08-07T00:54:57.023Z,70.80
2017-08-07T00:57:24.671Z,71.20
2017-08-07T00:59:53.135Z,71.90
2017-08-07T01:02:21.551Z,71.80
2017-08-07T01:04:49.253Z,71.70
2017-08-07T01:07:16.920Z,72.10
2017-08-07T01:09:44.610Z,71.80
2017-08-07T01:12:12.258Z,71.20
2017-08-07T01:14:40.716Z,70.80
2017-08-07T01:17:08.373Z,70.80
2017-08-07T01:19:36.067Z,70.80
2017-08-07T01:22:03.733Z,71.00
2017-08-07T01:24:31.426Z,71.30
2017-08-07T01:26:59.074Z,71.70
2017-08-07T01:29:26.727Z,71.50
2017-08-07T01:31:54.427Z,71.80
2017-08-07T01:34:22.074Z,72.00
2017-08-07T01:36:49.783Z,72.30
2017-08-07T01:39:17.461Z,72.50
2017-08-07T01:41:45.164Z,72.20
2017-08-07T01:44:12.823Z,72.60
2017-08-07T01:46:40.586Z,72.30
2017-08-07T01:49:08.279Z,72.30
2017-08-07T01:51:36.767Z,72.70
2017-08-07T01:54:04.439Z,72.50
2017-08-07T01:56:32.151Z,72.70
2017-08-07T01:58:59.810Z,72.90
2017-08-07T02:01:27.562Z,73.20
2017-08-07T02:03:55.219Z,73.00
2017-08-07T02:06:22.918Z,72.80
2017-08-07T02:08:51.326Z,72.90
2017-08-07T02:11:19.024Z,72.80
2017-08-07T02:13:46.675Z,72.70
2017-08-07T02:16:14.362Z,73.20
2017-08-07T02:18:42.774Z,72.60
2017-08-07T02:21:10.475Z,72.50
2017-08-07T02:23:38.121Z,72.50
2017-08-07T02:26:05.806Z,72.60
2017-08-07T02:28:33.454Z,72.90
2017-08-07T02:31:01.160Z,72.90
2017-08-07T02:33:28.810Z,72.80
2017-08-07T02:35:57.226Z,73.20
2017-08-07T02:38:24.916Z,73.10
2017-08-07T02:40:52.562Z,73.20
2017-08-07T02:43:20.251Z,73.50
2017-08-07T02:45:48.658Z,73.40
2017-08-07T02:48:16.347Z,73.40
2017-08-07T02:50:43.994Z,73.20
2017-08-07T02:53:11.684Z,73.40
2017-08-07T02:55:39.328Z,73.50
2017-08-07T02:58:07.010Z,73.30
2017-08-07T03:00:34.658Z,72.80
2017-08-07T03:03:02.352Z,72.60
2017-08-07T03:05:30.763Z,72.90
2017-08-07T03:07:58.455Z,72.90
2017-08-07T03:10:26.102Z,73.00
2017-08-07T03:12:53.782Z,72.90
2017-08-07T03:15:21.458Z,73.00
2017-08-07T03:17:49.911Z,73.10
2017-08-07T03:20:17.559Z,73.00
2017-08-07T03:22:45.246Z,73.10
2017-08-07T03:25:12.899Z,73.60
2017-08-07T03:27:40.583Z,73.50
2017-08-07T03:30:09.002Z,73.60
2017-08-07T03:32:36.686Z,73.60
2017-08-07T03:35:04.327Z,73.80
2017-08-07T03:37:32.016Z,74.10
2017-08-07T03:39:59.662Z,74.40
2017-08-07T03:42:27.313Z,74.30
2017-08-07T03:44:55.002Z,74.40
2017-08-07T03:47:22.656Z,74.60
2017-08-07T03:49:50.339Z,75.00
2017-08-07T03:52:18.746Z,74.20
2017-08-07T03:54:46.439Z,74.20
2017-08-07T03:57:14.090Z,74.40
2017-08-07T03:59:41.783Z,74.80
2017-08-07T04:02:10.203Z,74.20
2017-08-07T04:04:37.896Z,74.10
2017-08-07T04:07:05.549Z,73.70
2017-08-07T04:09:33.245Z,73.50
2017-08-07T04:12:01.684Z,73.90
2017-08-07T04:14:29.380Z,73.90
2017-08-07T04:16:57.026Z,74.40
2017-08-07T04:19:24.711Z,74.50
2017-08-07T04:21:52.359Z,75.00
2017-08-07T04:24:20.819Z,75.90
2017-08-07T04:26:48.470Z,75.80
2017-08-07T04:29:16.919Z,76.00
2017-08-07T04:31:44.568Z,76.00
2017-08-07T04:34:12.258Z,76.30
2017-08-07T04:36:39.903Z,76.30
2017-08-07T04:39:07.587Z,75.30
2017-08-07T04:41:35.235Z,74.90
2017-08-07T04:44:02.880Z,75.10
2017-08-07T04:46:30.567Z,75.00
2017-08-07T04:48:58.224Z,74.70
2017-08-07T04:51:25.926Z,75.00
2017-08-07T04:53:53.568Z,75.10
2017-08-07T04:56:22.021Z,75.00
2017-08-07T04:58:49.666Z,75.00
2017-08-07T05:01:17.355Z,75.20
2017-08-07T05:03:45.768Z,75.50
2017-08-07T05:06:13.463Z,75.50
2017-08-07T05:08:41.122Z,75.20
2017-08-07T05:11:08.806Z,75.40
2017-08-07T05:13:36.455Z,75.70
2017-08-07T05:16:04.143Z,75.60
2017-08-07T05:18:32.681Z,76.00
2017-08-07T05:21:00.370Z,75.90
2017-08-07T05:23:28.775Z,75.80
2017-08-07T05:25:56.459Z,75.70
2017-08-07T05:28:24.103Z,75.70
2017-08-07T05:30:51.796Z,76.20
2017-08-07T05:33:19.441Z,76.60
2017-08-07T05:35:47.127Z,76.50
2017-08-07T05:38:14.777Z,76.40
2017-08-07T05:40:42.503Z,76.50
2017-08-07T05:43:10.162Z,76.50
2017-08-07T05:45:37.811Z,76.30
2017-08-07T05:48:05.499Z,76.10
2017-08-07T05:50:33.154Z,75.50
2017-08-07T05:53:00.851Z,74.80
2017-08-07T05:55:28.503Z,74.30
2017-08-07T05:57:56.187Z,74.60
2017-08-07T06:00:23.863Z,74.60
2017-08-07T06:02:51.550Z,74.00
2017-08-07T06:05:19.199Z,73.50
2017-08-07T06:07:46.892Z,72.90
2017-08-07T06:10:14.534Z,72.80
2017-08-07T06:12:42.219Z,72.40
2017-08-07T06:15:09.865Z,72.50
2017-08-07T06:17:37.560Z,71.70
2017-08-07T06:20:05.975Z,70.10
2017-08-07T06:22:33.670Z,70.10
2017-08-07T06:25:01.315Z,69.60
2017-08-07T06:27:29.026Z,69.80
2017-08-07T06:29:57.438Z,68.90
2017-08-07T06:32:25.126Z,68.90
2017-08-07T06:34:52.767Z,68.10
2017-08-07T06:37:20.460Z,68.20
2017-08-07T06:39:48.143Z,68.00
2017-08-07T06:42:15.877Z,67.90
2017-08-07T06:44:43.530Z,66.30
2017-08-07T06:47:11.180Z,66.00
2017-08-07T06:49:38.871Z,66.00
2017-08-07T06:52:06.531Z,65.50
2017-08-07T06:54:34.989Z,64.40
2017-08-07T06:57:02.642Z,64.30
2017-08-07T06:59:30.340Z,63.80
2017-08-07T07:01:57.987Z,62.80
2017-08-07T07:04:25.677Z,62.40
2017-08-07T07:06:53.371Z,62.00
2017-08-07T07:11:47.971Z,61.30
2017-08-07T07:14:15.680Z,61.00
2017-08-07T07:16:43.324Z,61.60
2017-08-07T07:19:12.039Z,60.40
2017-08-07T07:21:39.684Z,60.20
2017-08-07T07:24:07.380Z,60.00
2017-08-07T07:26:35.024Z,59.20
2017-08-07T07:29:02.728Z,59.00
2017-08-07T07:31:30.372Z,58.60
2017-08-07T07:33:58.055Z,59.20
2017-08-07T07:36:25.703Z,58.20
2017-08-07T07:38:53.383Z,58.40
2017-08-07T07:41:21.793Z,56.70
2017-08-07T07:43:49.503Z,56.60
2017-08-07T07:46:17.145Z,56.80
2017-08-07T07:48:44.879Z,57.30
2017-08-07T07:51:12.581Z,55.20
2017-08-07T07:53:40.227Z,55.60
2017-08-07T07:56:07.915Z,55.20
2017-08-07T07:58:36.335Z,54.20
2017-08-07T08:01:04.021Z,54.10
2017-08-07T08:03:31.667Z,54.20
2017-08-07T08:05:59.349Z,55.10
2017-08-07T08:08:26.995Z,55.30
2017-08-07T08:10:54.684Z,54.90
2017-08-07T08:13:22.332Z,53.80
2017-08-07T08:15:50.025Z,54.40
2017-08-07T08:18:17.671Z,53.30
2017-08-07T08:20:46.124Z,55.40
2017-08-07T08:23:13.767Z,55.40
2017-08-07T08:25:41.461Z,54.00
2017-08-07T08:28:09.111Z,53.50
2017-08-07T08:30:36.799Z,53.90
2017-08-07T08:33:05.211Z,52.80
2017-08-07T08:35:32.904Z,52.70
2017-08-07T08:38:00.559Z,51.50
2017-08-07T08:40:28.248Z,52.50
2017-08-07T08:42:56.662Z,52.30
2017-08-07T08:45:24.359Z,52.40
2017-08-07T08:47:52.001Z,51.10
2017-08-07T08:50:19.643Z,50.80
2017-08-07T08:52:47.335Z,51.10
2017-08-07T08:55:14.983Z,50.40
2017-08-07T08:57:42.675Z,51.50
2017-08-07T09:00:10.328Z,51.20
2017-08-07T09:02:38.028Z,49.30
2017-08-07T09:05:05.691Z,48.40
2017-08-07T09:07:33.381Z,49.20
2017-08-07T09:10:01.027Z,47.90
2017-08-07T09:12:28.723Z,49.30
2017-08-07T09:14:56.374Z,48.80
2017-08-07T09:17:24.067Z,48.40
2017-08-07T09:19:51.710Z,46.60
2017-08-07T09:22:19.398Z,46.70
2017-08-07T09:24:47.051Z,47.50
2017-08-07T09:27:14.739Z,46.90
2017-08-07T09:29:42.384Z,46.40
2017-08-07T09:32:10.087Z,47.30
2017-08-07T09:34:37.736Z,45.80
2017-08-07T09:37:05.427Z,45.70
2017-08-07T09:39:33.079Z,45.50
2017-08-07T09:42:00.780Z,46.20
2017-08-07T09:44:28.433Z,45.80
2017-08-07T09:46:56.122Z,47.90
2017-08-07T09:49:23.767Z,45.10
2017-08-07T09:51:51.458Z,45.20
2017-08-07T09:54:19.147Z,44.70
2017-08-07T09:56:47.567Z,45.20
2017-08-07T09:59:15.254Z,45.20
2017-08-07T10:01:42.906Z,45.30
2017-08-07T10:04:10.604Z,45.80
2017-08-07T10:06:39.023Z,45.90
2017-08-07T10:09:06.727Z,45.80
2017-08-07T10:11:34.371Z,44.70
2017-08-07T10:14:02.122Z,45.80
2017-08-07T10:16:29.774Z,44.70
2017-08-07T10:18:57.470Z,43.20
2017-08-07T10:21:25.147Z,42.30
2017-08-07T10:23:53.603Z,41.70
2017-08-07T10:26:21.251Z,41.70
2017-08-07T10:28:48.943Z,41.00
2017-08-07T10:31:17.366Z,41.30
2017-08-07T10:33:45.056Z,41.30
2017-08-07T10:36:12.719Z,40.00
2017-08-07T10:38:40.410Z,40.20
2017-08-07T10:41:08.059Z,39.70
2017-08-07T10:43:36.519Z,38.50
2017-08-07T10:46:04.167Z,38.50
2017-08-07T10:48:31.861Z,40.00
2017-08-07T10:50:59.508Z,41.50
2017-08-07T10:53:27.980Z,36.30
2017-08-07T10:55:55.624Z,36.20
2017-08-07T10:58:23.274Z,36.00
2017-08-07T11:00:50.963Z,33.80
2017-08-07T11:03:19.379Z,35.90
2017-08-07T11:05:47.063Z,35.80
2017-08-07T11:08:14.712Z,35.80
2017-08-07T11:10:42.400Z,34.50
2017-08-07T11:13:10.954Z,38.10
2017-08-07T11:15:38.658Z,35.90
2017-08-07T11:18:07.078Z,35.40
2017-08-07T11:20:34.768Z,35.40
2017-08-07T11:23:02.418Z,36.60
2017-08-07T11:25:30.110Z,37.30
2017-08-07T11:27:57.759Z,38.00
2017-08-07T11:30:25.462Z,37.90
2017-08-07T11:32:53.111Z,38.30
2017-08-07T11:35:20.804Z,35.40
2017-08-07T11:37:48.451Z,35.20
2017-08-07T11:40:16.140Z,36.00
2017-08-07T11:42:43.787Z,35.40
2017-08-07T11:45:11.479Z,34.80
2017-08-07T11:47:39.130Z,35.00
2017-08-07T11:50:06.814Z,36.20
2017-08-07T11:52:35.223Z,36.90
2017-08-07T11:55:02.925Z,36.90
2017-08-07T11:57:30.575Z,36.00
2017-08-07T11:59:58.263Z,35.60
2017-08-07T12:02:26.724Z,36.20
2017-08-07T12:04:54.370Z,35.50
2017-08-07T12:07:22.057Z,39.70
2017-08-07T12:09:50.475Z,35.40
2017-08-07T12:12:18.163Z,35.00
2017-08-07T12:14:45.811Z,35.20
2017-08-07T12:17:13.503Z,36.60
2017-08-07T12:19:41.150Z,36.90
2017-08-07T12:22:08.835Z,36.30
2017-08-07T12:24:37.261Z,35.60
2017-08-07T12:27:04.952Z,35.50
2017-08-07T12:29:32.600Z,36.00
2017-08-07T12:32:00.282Z,35.00
2017-08-07T12:34:27.931Z,34.70
2017-08-07T12:36:55.624Z,35.70
2017-08-07T12:39:23.283Z,36.60
2017-08-07T12:41:51.761Z,34.80
2017-08-07T12:44:20.180Z,34.50
2017-08-07T12:46:47.878Z,34.50
2017-08-07T12:49:15.541Z,38.40
2017-08-07T12:51:43.999Z,33.40
2017-08-07T12:54:11.648Z,33.30
2017-08-07T12:56:39.347Z,34.40
2017-08-07T12:59:07.759Z,35.60
2017-08-07T13:01:35.450Z,35.30
2017-08-07T13:04:03.100Z,34.90
2017-08-07T13:06:30.782Z,33.70
2017-08-07T13:08:58.427Z,34.90
2017-08-07T13:11:26.121Z,36.30
2017-08-07T13:13:54.544Z,35.60
2017-08-07T13:16:22.187Z,34.90
2017-08-07T13:18:49.883Z,33.50
2017-08-07T13:21:17.528Z,31.10
2017-08-07T13:23:45.215Z,31.40
2017-08-07T13:26:12.864Z,35.90
2017-08-07T13:28:40.555Z,33.20
2017-08-07T13:31:08.983Z,30.30
2017-08-07T13:33:36.675Z,30.20
2017-08-07T13:36:04.330Z,31.70
2017-08-07T13:38:32.023Z,32.00
2017-08-07T13:40:59.667Z,29.50
2017-08-07T13:43:29.281Z,29.90
2017-08-07T13:45:57.006Z,29.80
2017-08-07T13:48:25.546Z,31.30
2017-08-07T13:50:53.211Z,32.30
2017-08-07T13:53:20.902Z,30.30
2017-08-07T13:55:48.550Z,29.60
2017-08-07T13:58:16.247Z,30.70
2017-08-07T14:00:43.891Z,31.10
2017-08-07T14:03:11.579Z,30.10
2017-08-07T14:05:39.990Z,29.60
2017-08-07T14:08:07.676Z,29.60
2017-08-07T14:10:35.339Z,30.00
2017-08-07T14:13:03.031Z,30.40
2017-08-07T14:15:30.692Z,30.70
2017-08-07T14:17:59.106Z,30.10
2017-08-07T14:20:26.804Z,30.10
2017-08-07T14:22:54.461Z,33.30
2017-08-07T14:25:22.147Z,30.20
2017-08-07T14:27:50.567Z,30.00
2017-08-07T14:30:18.270Z,30.00
2017-08-07T14:32:45.915Z,31.90
2017-08-07T14:35:13.609Z,30.10
2017-08-07T14:37:42.019Z,31.30
2017-08-07T14:40:09.716Z,31.30
2017-08-07T14:42:37.368Z,29.20
2017-08-07T14:45:05.067Z,29.50
2017-08-07T14:47:32.721Z,30.40
2017-08-07T14:50:01.183Z,29.80
2017-08-07T14:52:28.832Z,29.30
2017-08-07T14:54:56.530Z,30.70
2017-08-07T14:57:24.171Z,30.30
2017-08-07T14:59:52.623Z,30.00
2017-08-07T15:02:20.267Z,30.00
2017-08-07T15:04:47.956Z,30.00
2017-08-07T15:07:15.607Z,30.80
2017-08-07T15:09:43.308Z,31.00
2017-08-07T15:12:10.955Z,30.70
2017-08-07T15:14:39.415Z,31.50
2017-08-07T15:17:07.074Z,31.60
2017-08-07T15:19:34.763Z,35.20
2017-08-07T15:22:02.415Z,30.10
2017-08-07T15:24:30.834Z,31.30
2017-08-07T15:26:58.529Z,31.20
2017-08-07T15:29:26.188Z,31.30
2017-08-07T15:31:53.879Z,30.50
2017-08-07T15:34:21.524Z,30.70
2017-08-07T15:36:49.983Z,31.20
2017-08-07T15:39:17.639Z,31.10
2017-08-07T15:41:45.331Z,28.70
2017-08-07T15:44:13.738Z,28.50
2017-08-07T15:46:41.427Z,28.40
2017-08-07T15:49:09.082Z,26.30
2017-08-07T15:51:36.771Z,27.00
2017-08-07T15:54:05.183Z,26.40
2017-08-07T15:56:32.877Z,26.40
2017-08-07T15:59:00.528Z,26.00
2017-08-07T16:01:28.217Z,26.30
2017-08-07T16:03:55.876Z,25.60
2017-08-07T16:06:23.571Z,25.30
2017-08-07T16:08:51.214Z,26.90
2017-08-07T16:11:19.662Z,28.20
2017-08-07T16:13:47.308Z,28.20
2017-08-07T16:16:15.002Z,28.70
2017-08-07T16:18:43.423Z,32.50
2017-08-07T16:21:11.115Z,32.60
2017-08-07T16:23:38.764Z,30.30
2017-08-07T16:26:06.467Z,31.20
2017-08-07T16:28:34.879Z,32.20
2017-08-07T16:31:02.532Z,32.20
2017-08-07T16:33:30.232Z,33.80
2017-08-07T16:35:57.881Z,32.80
2017-08-07T16:38:25.564Z,34.30
2017-08-07T16:40:53.211Z,32.70
2017-08-07T16:43:20.895Z,34.10
2017-08-07T16:45:49.303Z,33.10
2017-08-07T16:48:16.991Z,33.10
2017-08-07T16:50:44.643Z,33.80
2017-08-07T16:53:13.091Z,33.30
2017-08-07T16:55:40.737Z,33.30
2017-08-07T16:58:09.186Z,34.20
2017-08-07T17:00:36.861Z,34.20
2017-08-07T17:03:04.556Z,35.10
2017-08-07T17:05:32.198Z,35.00
2017-08-07T17:08:00.655Z,35.80
2017-08-07T17:10:28.303Z,35.80
2017-08-07T17:12:56.032Z,36.90
2017-08-07T17:15:23.683Z,35.80
2017-08-07T17:17:51.376Z,35.90
2017-08-07T17:20:19.024Z,35.10
2017-08-07T17:22:46.718Z,35.50
2017-08-07T17:25:14.362Z,36.50
2017-08-07T17:27:42.050Z,36.50
2017-08-07T17:30:10.476Z,36.80
2017-08-07T17:32:38.171Z,36.80
2017-08-07T17:35:05.818Z,37.30
2017-08-07T17:37:33.462Z,37.60
2017-08-07T17:40:01.155Z,37.90
2017-08-07T17:42:29.571Z,38.50
2017-08-07T17:44:57.266Z,37.80
2017-08-07T17:47:24.918Z,37.30
2017-08-07T17:49:52.616Z,37.80
2017-08-07T17:52:21.039Z,38.40
2017-08-07T17:54:48.736Z,38.30
2017-08-07T17:57:16.389Z,38.40
2017-08-07T17:59:44.081Z,39.10
2017-08-07T18:02:11.743Z,39.50
2017-08-07T18:04:39.437Z,40.00
2017-08-07T18:07:07.099Z,39.60
2017-08-07T18:09:34.791Z,40.50
2017-08-07T18:12:02.440Z,40.20
2017-08-07T18:14:30.127Z,40.20
2017-08-07T18:16:58.548Z,41.10
2017-08-07T18:19:26.242Z,41.00
2017-08-07T18:21:53.896Z,41.40
2017-08-07T18:24:21.584Z,42.00
2017-08-07T18:26:49.999Z,42.30
2017-08-07T18:31:51.678Z,42.30
2017-08-07T18:34:19.371Z,42.80
2017-08-07T18:36:47.023Z,43.10
2017-08-07T18:39:14.727Z,43.90
2017-08-07T18:41:42.375Z,42.80
2017-08-07T18:44:10.789Z,43.30
2017-08-07T18:46:38.487Z,43.30
2017-08-07T18:49:06.160Z,43.40
2017-08-07T18:51:33.876Z,43.70
2017-08-07T18:54:01.537Z,44.00
2017-08-07T18:56:29.223Z,43.80
2017-08-07T18:58:56.891Z,44.40
2017-08-07T19:01:24.625Z,44.70
2017-08-07T19:03:52.313Z,44.70
2017-08-07T19:06:19.999Z,44.60
2017-08-07T19:08:47.657Z,45.10
2017-08-07T19:11:15.343Z,45.70
2017-08-07T19:13:42.997Z,46.70
2017-08-07T19:16:10.694Z,47.30
2017-08-07T19:18:38.346Z,47.00
2017-08-07T19:21:06.043Z,48.30
2017-08-07T19:23:34.780Z,49.90
2017-08-07T19:26:03.659Z,50.80
2017-08-07T19:28:33.347Z,51.10
2017-08-07T19:31:05.573Z,51.30
2017-08-07T19:33:36.468Z,51.70
2017-08-07T19:36:06.199Z,51.40
2017-08-07T19:38:37.953Z,51.10
2017-08-07T19:41:09.126Z,51.00
2017-08-07T19:43:39.179Z,51.10
2017-08-07T19:46:09.059Z,52.00
2017-08-07T19:48:38.433Z,51.80
2017-08-07T19:51:07.259Z,51.50
2017-08-07T19:53:37.834Z,52.50
2017-08-07T19:56:06.731Z,52.40
2017-08-07T19:58:36.595Z,52.70
2017-08-07T20:01:05.381Z,53.10
2017-08-07T20:03:33.976Z,54.00
2017-08-07T20:06:03.425Z,54.60
2017-08-07T20:08:31.408Z,55.10
2017-08-07T20:10:59.059Z,55.60
2017-08-07T20:13:27.609Z,56.90
2017-08-07T20:15:55.268Z,56.80
2017-08-07T20:18:22.956Z,56.70
2017-08-07T20:20:51.371Z,56.80
2017-08-07T20:23:19.076Z,56.60
2017-08-07T20:25:46.740Z,56.50
2017-08-07T20:28:14.509Z,56.70
2017-08-07T20:30:42.945Z,57.50
2017-08-07T20:33:10.648Z,57.40
2017-08-07T20:35:38.295Z,58.00
2017-08-07T20:38:05.983Z,58.70
2017-08-07T20:40:33.626Z,58.60
2017-08-07T20:43:01.322Z,59.00
2017-08-07T20:45:28.967Z,59.20
2017-08-07T20:47:56.658Z,59.50
2017-08-07T20:50:24.303Z,59.90
2017-08-07T20:52:51.998Z,60.00
2017-08-07T20:55:19.655Z,59.90
2017-08-07T20:57:47.344Z,59.90
2017-08-07T21:00:15.028Z,60.30
2017-08-07T21:02:42.719Z,60.70
2017-08-07T21:05:10.363Z,60.80
2017-08-07T21:07:38.058Z,61.00
2017-08-07T21:10:05.702Z,60.50
2017-08-07T21:12:33.409Z,60.20
2017-08-07T21:15:01.976Z,60.10
2017-08-07T21:17:29.623Z,60.00
2017-08-07T21:19:57.306Z,60.30
2017-08-07T21:22:25.715Z,60.00
2017-08-07T21:24:53.409Z,60.00
2017-08-07T21:27:21.068Z,60.80
2017-08-07T21:29:48.758Z,60.90
2017-08-07T21:32:16.407Z,60.70
2017-08-07T21:34:44.101Z,60.70
2017-08-07T21:37:11.787Z,61.40
2017-08-07T21:39:39.476Z,61.60
2017-08-07T21:42:07.138Z,61.50
2017-08-07T21:44:34.827Z,61.70
2017-08-07T21:47:02.491Z,62.10
2017-08-07T21:49:30.183Z,62.60
2017-08-07T21:51:57.827Z,62.80
2017-08-07T21:54:25.529Z,62.80
2017-08-07T21:56:53.181Z,62.90
2017-08-07T21:59:20.880Z,63.10
2017-08-07T22:01:49.290Z,63.70
2017-08-07T22:04:16.987Z,63.60
2017-08-07T22:06:44.635Z,63.80
2017-08-07T22:09:12.335Z,63.90
2017-08-07T22:11:40.752Z,63.70
2017-08-07T22:14:08.441Z,63.50
2017-08-07T22:16:36.086Z,63.80
2017-08-07T22:19:03.796Z,64.30
2017-08-07T22:21:32.211Z,64.60
2017-08-07T22:23:59.868Z,64.50
2017-08-07T22:26:27.571Z,64.30
2017-08-07T22:28:55.216Z,64.50
2017-08-07T22:31:22.907Z,64.60
2017-08-07T22:33:51.326Z,64.60
2017-08-07T22:36:19.023Z,64.60
2017-08-07T22:38:46.673Z,65.10
2017-08-07T22:41:14.359Z,65.10
2017-08-07T22:43:42.002Z,65.20
2017-08-07T22:46:09.695Z,65.80
2017-08-07T22:48:38.111Z,67.60
2017-08-07T22:51:05.799Z,67.60
2017-08-07T22:53:33.443Z,68.00
2017-08-07T22:56:01.131Z,68.20
2017-08-07T22:58:28.778Z,68.40
2017-08-07T23:00:56.468Z,69.20
2017-08-07T23:03:24.876Z,69.60
2017-08-07T23:05:52.566Z,69.60
2017-08-07T23:08:20.212Z,69.90
2017-08-07T23:10:47.904Z,70.00
2017-08-07T23:13:15.547Z,69.60
2017-08-07T23:15:43.231Z,69.10
2017-08-07T23:18:11.647Z,69.10
2017-08-07T23:20:39.332Z,68.80
2017-08-07T23:23:06.984Z,68.70
2017-08-07T23:25:34.642Z,68.60
2017-08-07T23:28:02.340Z,68.70
2017-08-07T23:30:30.011Z,69.50
2017-08-07T23:32:58.467Z,68.20
2017-08-07T23:35:26.113Z,68.20
2017-08-07T23:37:53.798Z,68.40
2017-08-07T23:40:21.446Z,68.30
2017-08-07T23:42:49.135Z,68.40
2017-08-07T23:45:17.550Z,68.70
2017-08-07T23:47:45.235Z,68.60
2017-08-07T23:50:12.879Z,68.80
2017-08-07T23:52:40.568Z,69.00
2017-08-07T23:55:08.223Z,69.10
2017-08-07T23:57:35.916Z,69.00
